createdAt,value
2019-06-10T00:02:07.331Z,8.20
2019-06-10T00:04:37.313Z,8.50
2019-06-10T00:07:07.458Z,8.37
2019-06-10T00:09:37.579Z,8.80
2019-06-10T00:12:08.177Z,8.67
2019-06-10T00:14:41.658Z,8.93
2019-06-10T00:17:11.104Z,9.13
2019-06-10T00:19:41.096Z,9.03
2019-06-10T00:22:11.863Z,8.50
2019-06-10T00:24:41.989Z,9.10
2019-06-10T00:27:12.118Z,8.47
2019-06-10T00:29:42.042Z,8.50
2019-06-10T00:32:13.219Z,8.57
2019-06-10T00:34:43.438Z,8.47
2019-06-10T00:37:14.680Z,8.13
2019-06-10T00:39:44.818Z,9.00
2019-06-10T00:42:15.340Z,7.70
2019-06-10T00:44:45.346Z,8.50
2019-06-10T00:47:15.523Z,8.60
2019-06-10T00:49:45.671Z,8.23
2019-06-10T00:52:15.543Z,7.87
2019-06-10T00:54:45.442Z,8.20
2019-06-10T00:57:15.298Z,7.63
2019-06-10T00:59:45.244Z,7.47
2019-06-10T01:02:15.196Z,7.37
2019-06-10T01:04:45.326Z,6.90
2019-06-10T01:07:15.143Z,7.30
2019-06-10T01:09:45.066Z,7.37
2019-06-10T01:12:15.145Z,8.13
2019-06-10T01:14:45.167Z,6.87
2019-06-10T01:17:15.526Z,7.77
2019-06-10T01:19:45.696Z,7.53
2019-06-10T01:22:16.013Z,7.93
2019-06-10T01:24:47.091Z,7.63
2019-06-10T01:27:18.043Z,7.80
2019-06-10T01:29:48.061Z,7.63
2019-06-10T01:32:17.846Z,7.80
2019-06-10T01:34:47.581Z,7.83
2019-06-10T01:37:17.708Z,7.73
2019-06-10T01:39:47.688Z,7.77
2019-06-10T01:42:17.579Z,7.57
2019-06-10T01:44:47.486Z,7.13
2019-06-10T01:47:17.660Z,7.40
2019-06-10T01:49:47.624Z,7.47
2019-06-10T01:52:18.376Z,7.47
2019-06-10T01:54:48.351Z,7.73
2019-06-10T01:57:18.640Z,6.73
2019-06-10T01:59:50.694Z,7.67
2019-06-10T02:02:23.833Z,7.67
2019-06-10T02:04:53.958Z,6.80
2019-06-10T02:07:24.443Z,7.07
2019-06-10T02:09:54.222Z,7.53
2019-06-10T02:12:24.400Z,6.97
2019-06-10T02:14:54.568Z,7.40
2019-06-10T02:17:24.427Z,7.00
2019-06-10T02:19:54.403Z,6.80
2019-06-10T02:22:24.638Z,7.60
2019-06-10T02:24:54.790Z,6.70
2019-06-10T02:27:24.626Z,7.20
2019-06-10T02:29:54.436Z,6.77
2019-06-10T02:32:31.656Z,7.20
2019-06-10T02:35:08.095Z,6.63
2019-06-10T02:37:32.113Z,6.57
2019-06-10T02:39:58.833Z,6.90
2019-06-10T02:42:36.384Z,7.00
2019-06-10T02:45:09.141Z,7.17
2019-06-10T02:47:38.997Z,6.80
2019-06-10T02:50:14.282Z,6.87
2019-06-10T02:52:44.328Z,6.60
2019-06-10T02:55:15.605Z,6.87
2019-06-10T02:57:45.301Z,7.17
2019-06-10T03:00:24.729Z,6.70
2019-06-10T03:02:47.356Z,6.97
2019-06-10T03:05:19.589Z,7.00
2019-06-10T03:07:48.772Z,6.87
2019-06-10T03:10:21.113Z,7.17
2019-06-10T03:12:50.074Z,7.33
2019-06-10T03:15:24.508Z,6.77
2019-06-10T03:17:53.488Z,6.70
2019-06-10T03:20:25.856Z,7.47
2019-06-10T03:22:54.921Z,6.63
2019-06-10T03:25:26.089Z,6.10
2019-06-10T03:27:56.331Z,6.93
2019-06-10T03:30:37.442Z,6.90
2019-06-10T03:32:57.677Z,6.80
2019-06-10T03:35:28.506Z,6.37
2019-06-10T03:37:58.540Z,6.07
2019-06-10T03:40:28.322Z,6.70
2019-06-10T03:42:58.217Z,6.20
2019-06-10T03:45:28.551Z,6.07
2019-06-10T03:47:58.593Z,6.03
2019-06-10T03:50:28.731Z,6.37
2019-06-10T03:53:01.042Z,5.97
2019-06-10T03:55:30.131Z,6.33
2019-06-10T03:58:02.215Z,5.60
2019-06-10T04:00:32.709Z,5.87
2019-06-10T04:03:02.909Z,5.97
2019-06-10T04:05:33.190Z,5.50
2019-06-10T04:08:03.074Z,5.30
2019-06-10T04:10:32.964Z,5.40
2019-06-10T04:13:02.779Z,5.73
2019-06-10T04:15:32.754Z,5.57
2019-06-10T04:18:03.931Z,5.20
2019-06-10T04:20:34.145Z,5.57
2019-06-10T04:23:04.024Z,5.50
2019-06-10T04:25:33.843Z,5.50
2019-06-10T04:28:03.794Z,5.50
2019-06-10T04:30:33.587Z,5.73
2019-06-10T04:33:03.424Z,6.03
2019-06-10T04:35:33.676Z,6.03
2019-06-10T04:38:03.709Z,5.77
2019-06-10T04:40:33.552Z,6.17
2019-06-10T04:43:03.459Z,6.00
2019-06-10T04:45:33.321Z,5.50
2019-06-10T04:48:03.248Z,6.33
2019-06-10T04:50:41.502Z,5.27
2019-06-10T04:53:04.630Z,6.30
2019-06-10T04:55:34.487Z,6.70
2019-06-10T04:58:04.343Z,5.70
2019-06-10T05:00:34.150Z,5.60
2019-06-10T05:03:03.989Z,4.90
2019-06-10T05:05:33.908Z,5.57
2019-06-10T05:08:03.868Z,5.03
2019-06-10T05:10:33.679Z,5.70
2019-06-10T05:13:03.582Z,5.90
2019-06-10T05:15:34.892Z,5.70
2019-06-10T05:18:04.914Z,5.90
2019-06-10T05:20:51.059Z,7.30
2019-06-10T05:23:06.096Z,5.10
2019-06-10T05:25:35.887Z,5.37
2019-06-10T05:28:05.859Z,6.50
2019-06-10T05:30:35.686Z,5.33
2019-06-10T05:33:05.445Z,4.93
2019-06-10T05:35:35.263Z,5.67
2019-06-10T05:38:05.331Z,6.17
2019-06-10T05:40:35.223Z,5.40
2019-06-10T05:43:05.083Z,5.80
2019-06-10T05:45:35.276Z,6.53
2019-06-10T05:48:05.518Z,5.43
2019-06-10T05:50:35.300Z,5.70
2019-06-10T05:53:05.236Z,5.93
2019-06-10T05:55:35.354Z,5.87
2019-06-10T05:58:05.437Z,5.43
2019-06-10T06:00:35.658Z,5.53
2019-06-10T06:03:05.610Z,6.23
2019-06-10T06:05:37.631Z,6.10
2019-06-10T06:08:08.773Z,5.93
2019-06-10T06:10:38.606Z,8.07
2019-06-10T06:13:08.383Z,6.43
2019-06-10T06:15:38.253Z,6.10
2019-06-10T06:18:10.782Z,6.33
2019-06-10T06:20:39.688Z,6.23
2019-06-10T06:23:12.125Z,6.90
2019-06-10T06:25:44.343Z,5.93
2019-06-10T06:28:15.943Z,6.00
2019-06-10T06:30:44.302Z,6.80
2019-06-10T06:33:14.216Z,7.57
2019-06-10T06:35:46.616Z,7.10
2019-06-10T06:38:15.462Z,7.67
2019-06-10T06:40:45.364Z,6.97
2019-06-10T06:43:15.225Z,7.10
2019-06-10T06:45:45.075Z,7.30
2019-06-10T06:48:14.888Z,6.90
2019-06-10T06:51:00.407Z,6.93
2019-06-10T06:53:28.708Z,7.23
2019-06-10T06:55:47.804Z,8.20
2019-06-10T06:58:17.631Z,9.87
2019-06-10T07:01:03.756Z,9.63
2019-06-10T07:03:18.975Z,8.67
2019-06-10T07:05:52.984Z,9.27
2019-06-10T07:08:23.848Z,8.53
2019-06-10T07:10:55.763Z,8.20
2019-06-10T07:13:27.107Z,8.93
2019-06-10T07:15:56.870Z,8.13
2019-06-10T07:18:26.799Z,7.90
2019-06-10T07:20:56.592Z,7.53
2019-06-10T07:23:26.512Z,7.37
2019-06-10T07:25:56.430Z,7.80
2019-06-10T07:28:26.300Z,7.90
2019-06-10T07:30:56.039Z,7.20
2019-06-10T07:33:25.868Z,8.43
2019-06-10T07:35:56.571Z,8.03
2019-06-10T07:38:26.724Z,8.30
2019-06-10T07:40:56.891Z,7.93
2019-06-10T07:43:26.792Z,7.40
2019-06-10T07:45:56.746Z,8.23
2019-06-10T07:48:26.612Z,10.70
2019-06-10T07:50:56.501Z,8.60
2019-06-10T07:53:26.372Z,8.37
2019-06-10T07:55:56.164Z,8.63
2019-06-10T07:58:25.976Z,8.30
2019-06-10T08:00:55.808Z,8.27
2019-06-10T08:03:25.764Z,8.43
2019-06-10T08:05:55.645Z,8.13
2019-06-10T08:08:25.474Z,7.33
2019-06-10T08:10:55.315Z,7.40
2019-06-10T08:13:25.051Z,8.43
2019-06-10T08:15:54.962Z,7.33
2019-06-10T08:18:24.801Z,7.07
2019-06-10T08:20:54.699Z,7.40
2019-06-10T08:23:24.548Z,7.33
2019-06-10T08:25:57.826Z,6.83
2019-06-10T08:28:26.100Z,6.37
2019-06-10T08:30:55.910Z,6.87
2019-06-10T08:33:25.752Z,6.83
2019-06-10T08:36:00.086Z,6.47
2019-06-10T08:38:27.025Z,6.90
2019-06-10T08:40:56.990Z,6.83
2019-06-10T08:43:26.796Z,6.30
2019-06-10T08:45:56.695Z,8.20
2019-06-10T08:48:26.818Z,7.30
2019-06-10T08:50:56.651Z,7.70
2019-06-10T08:53:26.616Z,8.30
2019-06-10T08:55:56.508Z,8.90
2019-06-10T08:58:26.359Z,9.60
2019-06-10T09:00:56.404Z,7.63
2019-06-10T09:03:26.290Z,7.70
2019-06-10T09:05:58.370Z,7.87
2019-06-10T09:08:27.632Z,7.80
2019-06-10T09:10:57.484Z,7.57
2019-06-10T09:13:27.331Z,7.37
2019-06-10T09:16:10.979Z,7.37
2019-06-10T09:18:28.748Z,7.00
2019-06-10T09:20:58.691Z,7.00
2019-06-10T09:23:28.464Z,6.50
2019-06-10T09:25:58.312Z,6.90
2019-06-10T09:28:28.219Z,6.83
2019-06-10T09:30:59.609Z,6.57
2019-06-10T09:33:29.677Z,7.07
2019-06-10T09:35:59.517Z,6.57
2019-06-10T09:38:29.413Z,5.77
2019-06-10T09:41:02.972Z,5.90
2019-06-10T09:43:33.363Z,6.40
2019-06-10T09:46:03.594Z,6.27
2019-06-10T09:48:33.894Z,6.70
2019-06-10T09:51:03.896Z,6.03
2019-06-10T09:53:42.288Z,5.93
2019-06-10T09:56:05.611Z,6.20
2019-06-10T09:58:35.520Z,5.90
2019-06-10T10:01:05.794Z,6.20
2019-06-10T10:03:35.672Z,6.53
2019-06-10T10:06:14.082Z,6.33
2019-06-10T10:08:38.372Z,6.70
2019-06-10T10:11:08.271Z,6.77
2019-06-10T10:13:38.169Z,6.30
2019-06-10T10:16:08.561Z,6.23
2019-06-10T10:18:38.428Z,5.93
2019-06-10T10:21:08.453Z,6.60
2019-06-10T10:23:51.264Z,6.00
2019-06-10T10:26:12.747Z,6.10
2019-06-10T10:28:42.838Z,6.57
2019-06-10T10:31:13.262Z,6.50
2019-06-10T10:33:44.238Z,6.37
2019-06-10T10:36:14.281Z,6.20
2019-06-10T10:38:44.791Z,5.90
2019-06-10T10:41:15.161Z,5.53
2019-06-10T10:43:46.804Z,5.97
2019-06-10T10:46:16.625Z,5.40
2019-06-10T10:48:47.097Z,5.70
2019-06-10T10:51:17.627Z,6.17
2019-06-10T10:53:56.255Z,6.03
2019-06-10T10:56:18.993Z,5.23
2019-06-10T10:58:49.240Z,5.93
2019-06-10T11:01:23.177Z,6.00
2019-06-10T11:03:56.941Z,5.30
2019-06-10T11:06:23.515Z,6.17
2019-06-10T11:08:55.882Z,6.40
2019-06-10T11:11:27.216Z,5.90
2019-06-10T11:13:59.429Z,6.70
2019-06-10T11:16:29.397Z,6.50
2019-06-10T11:18:59.181Z,6.10
2019-06-10T11:21:29.304Z,6.33
2019-06-10T11:24:02.228Z,6.47
2019-06-10T11:26:32.844Z,6.23
2019-06-10T11:29:03.073Z,6.23
2019-06-10T11:31:33.148Z,6.37
2019-06-10T11:34:03.284Z,6.43
2019-06-10T11:36:33.319Z,6.00
2019-06-10T11:39:03.172Z,6.80
2019-06-10T11:41:33.012Z,7.53
2019-06-10T11:44:02.940Z,7.60
2019-06-10T11:46:33.209Z,7.10
2019-06-10T11:49:03.970Z,7.70
2019-06-10T11:51:34.051Z,7.47
2019-06-10T11:54:03.820Z,6.53
2019-06-10T11:56:33.789Z,6.70
2019-06-10T11:59:09.192Z,6.53
2019-06-10T12:01:35.235Z,6.10
2019-06-10T12:04:05.522Z,6.77
2019-06-10T12:06:35.592Z,6.93
2019-06-10T12:09:08.373Z,7.23
2019-06-10T12:11:38.328Z,6.83
2019-06-10T12:14:08.607Z,6.60
2019-06-10T12:19:09.882Z,6.27
2019-06-10T12:21:39.722Z,5.80
2019-06-10T12:24:12.461Z,6.10
2019-06-10T12:26:43.443Z,5.97
2019-06-10T12:29:12.687Z,5.40
2019-06-10T12:31:42.920Z,5.40
2019-06-10T12:34:13.067Z,5.77
2019-06-10T12:36:42.922Z,6.53
2019-06-10T12:39:15.546Z,7.40
2019-06-10T12:41:44.813Z,6.73
2019-06-10T12:44:14.929Z,5.50
2019-06-10T12:46:44.768Z,5.50
2019-06-10T12:49:18.282Z,8.70
2019-06-10T12:51:46.145Z,8.40
2019-06-10T12:54:16.114Z,7.93
2019-06-10T12:56:45.980Z,5.47
2019-06-10T12:59:15.845Z,5.13
2019-06-10T13:01:46.518Z,5.03
2019-06-10T13:04:17.080Z,5.27
2019-06-10T13:06:49.665Z,4.70
2019-06-10T13:09:20.144Z,4.67
2019-06-10T13:11:52.591Z,4.63
2019-06-10T13:14:22.048Z,5.10
2019-06-10T13:16:52.679Z,4.83
2019-06-10T13:19:23.213Z,4.47
2019-06-10T13:21:53.187Z,4.87
2019-06-10T13:24:23.035Z,4.60
2019-06-10T13:26:52.829Z,4.60
2019-06-10T13:29:24.215Z,4.67
2019-06-10T13:31:54.152Z,4.80
2019-06-10T13:34:24.038Z,5.00
2019-06-10T13:36:53.947Z,5.00
2019-06-10T13:39:26.880Z,4.53
2019-06-10T13:41:55.440Z,4.83
2019-06-10T13:44:25.262Z,4.63
2019-06-10T13:46:55.139Z,4.63
2019-06-10T13:49:25.573Z,4.40
2019-06-10T13:51:56.332Z,5.17
2019-06-10T13:54:26.403Z,4.77
2019-06-10T13:56:56.264Z,4.63
2019-06-10T13:59:26.273Z,4.67
2019-06-10T14:01:56.032Z,4.57
2019-06-10T14:04:26.009Z,5.20
2019-06-10T14:06:57.271Z,4.47
2019-06-10T14:09:27.508Z,4.33
2019-06-10T14:11:57.376Z,4.40
2019-06-10T14:14:27.134Z,4.30
2019-06-10T14:16:57.097Z,4.23
2019-06-10T14:19:27.019Z,3.80
2019-06-10T14:21:56.815Z,3.80
2019-06-10T14:24:26.733Z,4.17
2019-06-10T14:26:56.576Z,4.00
2019-06-10T14:29:26.457Z,4.20
2019-06-10T14:31:56.422Z,4.00
2019-06-10T14:34:26.227Z,4.70
2019-06-10T14:36:56.044Z,3.90
2019-06-10T14:39:25.908Z,4.20
2019-06-10T14:41:59.220Z,3.53
2019-06-10T14:44:27.423Z,4.27
2019-06-10T14:46:57.227Z,3.80
2019-06-10T14:49:26.949Z,4.07
2019-06-10T14:51:56.819Z,3.47
2019-06-10T14:54:26.663Z,3.60
2019-06-10T14:56:57.363Z,4.17
2019-06-10T14:59:27.484Z,4.00
2019-06-10T15:01:57.284Z,3.70
2019-06-10T15:04:27.173Z,3.43
2019-06-10T15:06:57.055Z,3.97
2019-06-10T15:09:26.895Z,3.60
2019-06-10T15:11:56.805Z,3.27
2019-06-10T15:14:26.608Z,3.60
2019-06-10T15:16:56.535Z,4.50
2019-06-10T15:19:28.968Z,7.00
2019-06-10T15:22:00.228Z,4.03
2019-06-10T15:24:30.111Z,3.50
2019-06-10T15:27:11.204Z,3.20
2019-06-10T15:29:32.829Z,3.60
2019-06-10T15:32:13.941Z,3.47
2019-06-10T15:34:34.597Z,3.97
2019-06-10T15:37:04.656Z,3.50
2019-06-10T15:39:34.534Z,3.17
2019-06-10T15:42:04.391Z,4.13
2019-06-10T15:44:48.764Z,3.20
2019-06-10T15:47:05.759Z,3.50
2019-06-10T15:49:35.536Z,3.67
2019-06-10T15:52:05.636Z,6.43
2019-06-10T15:54:35.575Z,3.73
2019-06-10T15:57:05.586Z,3.73
2019-06-10T15:59:35.399Z,4.37
2019-06-10T16:02:05.279Z,3.87
2019-06-10T16:04:35.421Z,4.00
2019-06-10T16:07:05.515Z,3.70
2019-06-10T16:09:35.386Z,3.30
2019-06-10T16:12:05.278Z,3.60
2019-06-10T16:14:36.983Z,3.90
2019-06-10T16:17:06.965Z,3.50
2019-06-10T16:19:36.806Z,3.77
2019-06-10T16:22:06.673Z,3.37
2019-06-10T16:24:36.520Z,4.60
2019-06-10T16:27:06.314Z,4.73
2019-06-10T16:29:36.265Z,3.73
2019-06-10T16:32:06.029Z,3.63
2019-06-10T16:34:35.928Z,3.40
2019-06-10T16:37:05.862Z,5.07
2019-06-10T16:39:35.849Z,4.57
2019-06-10T16:42:05.896Z,3.40
2019-06-10T16:44:35.863Z,3.43
2019-06-10T16:47:05.795Z,3.70
2019-06-10T16:49:35.595Z,5.73
2019-06-10T16:52:05.814Z,3.90
2019-06-10T16:54:35.595Z,3.60
2019-06-10T16:57:05.411Z,4.27
2019-06-10T16:59:35.375Z,3.80
2019-06-10T17:02:05.429Z,4.00
2019-06-10T17:04:35.215Z,4.13
2019-06-10T17:07:05.041Z,3.60
2019-06-10T17:09:34.907Z,4.30
2019-06-10T17:12:04.913Z,3.83
2019-06-10T17:14:34.748Z,3.93
2019-06-10T17:17:04.586Z,3.83
2019-06-10T17:19:34.487Z,5.53
2019-06-10T17:22:04.475Z,4.90
2019-06-10T17:24:34.434Z,4.57
2019-06-10T17:27:04.334Z,4.17
2019-06-10T17:29:34.240Z,3.87
2019-06-10T17:32:04.091Z,4.23
2019-06-10T17:34:34.147Z,5.17
2019-06-10T17:37:04.102Z,5.83
2019-06-10T17:39:34.720Z,4.13
2019-06-10T17:42:04.891Z,4.80
2019-06-10T17:44:34.728Z,3.87
2019-06-10T17:47:04.537Z,4.23
2019-06-10T17:49:34.902Z,4.27
2019-06-10T17:52:05.043Z,4.77
2019-06-10T17:54:34.969Z,5.00
2019-06-10T17:57:04.822Z,4.47
2019-06-10T17:59:35.511Z,5.13
2019-06-10T18:02:05.489Z,4.57
2019-06-10T18:04:35.416Z,4.50
2019-06-10T18:07:05.252Z,5.10
2019-06-10T18:09:37.084Z,5.10
2019-06-10T18:12:06.718Z,4.20
2019-06-10T18:14:36.732Z,4.17
2019-06-10T18:17:06.652Z,4.30
2019-06-10T18:19:37.486Z,4.57
2019-06-10T18:22:07.552Z,3.90
2019-06-10T18:24:37.337Z,4.13
2019-06-10T18:27:26.959Z,5.33
2019-06-10T18:29:56.835Z,4.07
2019-06-10T18:32:27.452Z,8.57
2019-06-10T18:34:57.402Z,5.40
2019-06-10T18:37:28.165Z,5.20
2019-06-10T18:39:58.238Z,5.40
2019-06-10T18:42:28.565Z,4.30
2019-06-10T18:44:58.410Z,4.40
2019-06-10T18:47:28.281Z,4.27
2019-06-10T18:49:58.237Z,4.50
2019-06-10T18:52:28.007Z,4.73
2019-06-10T18:54:57.867Z,4.63
2019-06-10T18:57:28.787Z,4.60
2019-06-10T18:59:58.824Z,4.33
2019-06-10T19:02:28.630Z,5.00
2019-06-10T19:04:58.467Z,5.50
2019-06-10T19:07:28.739Z,5.10
2019-06-10T19:09:58.544Z,4.53
2019-06-10T19:12:29.167Z,5.80
2019-06-10T19:14:59.243Z,5.07
2019-06-10T19:17:30.392Z,4.40
2019-06-10T19:20:01.360Z,4.80
2019-06-10T19:22:34.394Z,4.60
2019-06-10T19:25:03.860Z,5.07
2019-06-10T19:27:35.163Z,4.40
2019-06-10T19:30:05.777Z,5.07
2019-06-10T19:32:36.753Z,4.83
2019-06-10T19:35:07.763Z,4.73
2019-06-10T19:37:39.015Z,6.10
2019-06-10T19:40:09.532Z,5.20
2019-06-10T19:42:40.239Z,4.70
2019-06-10T19:45:12.523Z,4.53
2019-06-10T19:47:46.095Z,4.47
2019-06-10T19:50:16.168Z,4.30
2019-06-10T19:52:46.066Z,4.53
2019-06-10T19:55:15.896Z,5.03
2019-06-10T19:57:45.719Z,4.20
2019-06-10T20:00:16.038Z,3.83
2019-06-10T20:02:46.988Z,4.80
2019-06-10T20:05:18.871Z,4.20
2019-06-10T20:07:52.819Z,4.63
2019-06-10T20:10:20.327Z,4.90
2019-06-10T20:12:50.177Z,5.23
2019-06-10T20:15:23.859Z,5.50
2019-06-10T20:17:54.233Z,4.50
2019-06-10T20:20:24.044Z,4.03
2019-06-10T20:22:57.206Z,4.77
2019-06-10T20:25:25.369Z,4.60
2019-06-10T20:27:55.379Z,4.50
2019-06-10T20:30:29.002Z,4.73
2019-06-10T20:32:56.949Z,4.93
2019-06-10T20:35:26.893Z,4.43
2019-06-10T20:37:56.691Z,4.60
2019-06-10T20:40:26.919Z,4.40
2019-06-10T20:43:00.112Z,4.20
2019-06-10T20:45:28.260Z,3.97
2019-06-10T20:47:58.095Z,4.83
2019-06-10T20:50:27.923Z,4.70
2019-06-10T20:53:11.064Z,4.90
2019-06-10T20:55:40.439Z,4.70
2019-06-10T20:58:04.216Z,4.93
2019-06-10T21:00:37.088Z,4.10
2019-06-10T21:03:07.259Z,4.53
2019-06-10T21:05:37.323Z,4.27
2019-06-10T21:08:07.489Z,4.87
2019-06-10T21:10:39.703Z,4.67
2019-06-10T21:13:12.189Z,4.87
2019-06-10T21:15:45.663Z,5.77
2019-06-10T21:18:13.209Z,4.33
2019-06-10T21:20:46.579Z,4.83
2019-06-10T21:23:16.255Z,5.07
2019-06-10T21:25:49.447Z,4.50
2019-06-10T21:28:17.710Z,4.73
2019-06-10T21:30:52.121Z,5.50
2019-06-10T21:33:19.193Z,4.80
2019-06-10T21:35:50.155Z,6.33
2019-06-10T21:38:23.029Z,5.90
2019-06-10T21:40:54.032Z,6.00
2019-06-10T21:43:23.571Z,5.77
2019-06-10T21:45:57.443Z,6.07
2019-06-10T21:48:24.942Z,6.23
2019-06-10T21:50:56.041Z,5.37
2019-06-10T21:53:26.077Z,7.03
2019-06-10T21:55:55.970Z,5.73
2019-06-10T21:58:25.880Z,5.80
2019-06-10T22:01:11.612Z,5.70
2019-06-10T22:03:27.742Z,5.77
2019-06-10T22:05:57.607Z,6.43
2019-06-10T22:08:27.543Z,5.33
2019-06-10T22:10:57.455Z,6.23
2019-06-10T22:13:27.269Z,6.00
2019-06-10T22:15:57.284Z,5.40
2019-06-10T22:18:28.043Z,5.87
2019-06-10T22:20:57.930Z,5.23
2019-06-10T22:23:27.764Z,5.90
2019-06-10T22:25:57.771Z,6.03
2019-06-10T22:28:27.747Z,6.30
2019-06-10T22:31:15.122Z,6.27
2019-06-10T22:33:29.074Z,6.13
2019-06-10T22:35:58.862Z,6.20
2019-06-10T22:38:28.939Z,5.53
2019-06-10T22:40:59.303Z,5.97
2019-06-10T22:43:29.240Z,5.20
2019-06-10T22:45:59.907Z,5.77
2019-06-10T22:48:29.806Z,5.10
2019-06-10T22:50:59.636Z,4.43
2019-06-10T22:53:29.545Z,4.80
2019-06-10T22:55:59.355Z,5.13
2019-06-10T22:58:29.164Z,5.20
2019-06-10T23:01:00.228Z,6.00
2019-06-10T23:03:30.199Z,6.63
2019-06-10T23:06:02.474Z,6.07
2019-06-10T23:08:33.397Z,6.13
2019-06-10T23:11:03.042Z,6.67
2019-06-10T23:13:33.224Z,7.07
2019-06-10T23:16:03.009Z,7.10
2019-06-10T23:18:32.867Z,8.20
2019-06-10T23:21:04.370Z,7.00
2019-06-10T23:23:34.196Z,7.57
2019-06-10T23:26:04.099Z,6.83
2019-06-10T23:28:33.875Z,7.20
2019-06-10T23:31:05.263Z,7.37
2019-06-10T23:33:35.216Z,7.37
2019-06-10T23:36:06.012Z,6.77
2019-06-10T23:38:35.879Z,7.53
2019-06-10T23:41:05.795Z,7.30
2019-06-10T23:43:35.638Z,6.37
2019-06-10T23:46:05.488Z,6.93
2019-06-10T23:48:35.326Z,6.90
2019-06-10T23:51:05.413Z,6.93
2019-06-10T23:53:35.359Z,7.17
2019-06-10T23:56:05.325Z,7.50
2019-06-10T23:58:35.409Z,7.67
